createdAt,value
2019-03-27T07:47:29.867Z,1027.6
2019-03-27T07:48:31.307Z,1027.6
2019-03-27T07:49:32.747Z,1027.6
2019-03-27T07:50:34.155Z,1027.8
2019-03-27T07:51:35.654Z,1027.8
2019-03-27T07:52:37.057Z,1027.8
2019-03-27T07:53:38.479Z,1027.7
2019-03-27T07:54:39.883Z,1027.6
2019-03-27T07:55:41.369Z,1027.6
2019-03-27T07:56:42.770Z,1027.7
2019-03-27T07:57:44.174Z,1027.9
2019-03-27T07:58:45.682Z,1027.8
2019-03-27T07:59:47.086Z,1027.9
2019-03-27T08:00:48.489Z,1028.0
2019-03-27T08:01:50.014Z,1027.9
2019-03-27T08:02:51.415Z,1027.9
2019-03-27T08:03:53.015Z,1027.9
2019-03-27T08:04:54.427Z,1027.9
2019-03-27T08:05:56.038Z,1027.8
2019-03-27T08:06:57.444Z,1027.9
2019-03-27T08:07:58.849Z,1027.9
2019-03-27T08:09:00.356Z,1027.9
2019-03-27T08:10:01.763Z,1027.9
2019-03-27T08:11:03.248Z,1027.9
2019-03-27T08:12:04.894Z,1028.0
2019-03-27T08:13:06.302Z,1028.0
2019-03-27T08:14:07.707Z,1028.0
2019-03-27T08:15:09.207Z,1028.0
2019-03-27T08:16:10.610Z,1027.9
2019-03-27T08:17:12.010Z,1027.8
2019-03-27T08:18:13.567Z,1027.7
2019-03-27T08:19:14.965Z,1027.8
2019-03-27T08:20:16.368Z,1027.9
2019-03-27T08:21:18.057Z,1028.0
2019-03-27T08:22:19.461Z,1028.1
2019-03-27T08:23:21.140Z,1028.1
2019-03-27T08:24:22.542Z,1028.3
2019-03-27T08:25:24.226Z,1028.2
2019-03-27T08:26:25.627Z,1028.3
2019-03-27T08:27:27.037Z,1028.2
2019-03-27T08:28:28.545Z,1028.4
2019-03-27T08:29:29.952Z,1028.2
2019-03-27T08:30:31.357Z,1028.5
2019-03-27T08:31:32.866Z,1029.0
2019-03-27T08:32:37.299Z,1028.5
2019-03-27T08:33:35.749Z,1028.5
2019-03-27T08:34:37.157Z,1028.4
2019-03-27T08:35:38.836Z,1028.3
2019-03-27T08:36:48.853Z,1028.6
2019-03-27T08:37:50.401Z,1028.3
2019-03-27T08:38:51.957Z,1028.2
2019-03-27T08:39:53.558Z,1028.5
2019-03-27T08:40:55.283Z,1028.9
2019-03-27T08:41:56.839Z,1029.3
2019-03-27T08:42:58.255Z,1030.8
2019-03-27T08:44:04.217Z,1028.4
2019-03-27T08:45:05.650Z,1028.2
2019-03-27T08:46:07.249Z,1028.1
2019-03-27T08:47:08.703Z,1028.1
2019-03-27T08:48:10.140Z,1028.0
2019-03-27T08:49:22.023Z,1028.1
2019-03-27T08:50:13.139Z,1029.2
2019-03-27T08:51:14.547Z,1028.4
2019-03-27T08:52:16.263Z,1028.5
2019-03-27T08:53:17.813Z,1030.2
2019-03-27T08:54:19.279Z,1028.7
2019-03-27T08:55:21.034Z,1031.7
2019-03-27T08:56:22.461Z,1030.9
2019-03-27T08:57:23.910Z,1030.4
2019-03-27T08:58:25.477Z,1029.6
2019-03-27T08:59:26.886Z,1029.4
2019-03-27T09:00:28.290Z,1032.1
2019-03-27T09:01:29.743Z,1032.0
2019-03-27T09:02:34.095Z,1032.1
2019-03-27T09:03:35.531Z,1031.7
2019-03-27T09:04:37.210Z,1031.8
2019-03-27T09:05:45.293Z,1032.1
2019-03-27T09:06:46.863Z,1032.1
2019-03-27T09:07:48.451Z,1031.7
2019-03-27T09:08:49.870Z,1031.7
2019-03-27T09:09:51.568Z,1030.9
2019-03-27T09:10:53.039Z,1031.2
2019-03-27T09:11:54.636Z,1031.3
2019-03-27T09:12:56.061Z,1031.2
2019-03-27T09:13:57.578Z,1031.3
2019-03-27T09:14:59.116Z,1031.3
2019-03-27T09:16:00.608Z,1031.1
2019-03-27T09:17:02.082Z,1031.3
2019-03-27T09:18:03.741Z,1031.4
2019-03-27T09:19:05.332Z,1031.5
2019-03-27T09:20:06.971Z,1031.5
2019-03-27T09:21:08.404Z,1031.2
2019-03-27T09:22:09.819Z,1031.1
2019-03-27T09:23:11.386Z,1031.1
2019-03-27T09:24:12.810Z,1031.1
2019-03-27T09:25:14.269Z,1030.9
2019-03-27T09:26:15.879Z,1030.9
2019-03-27T09:27:17.333Z,1030.4
2019-03-27T09:28:18.814Z,1029.7
2019-03-27T09:29:20.386Z,1030.3
2019-03-27T09:30:21.802Z,1030.9
2019-03-27T09:31:23.460Z,1030.2
2019-03-27T09:32:24.891Z,1029.7
2019-03-27T09:33:26.537Z,1030.5
2019-03-27T09:34:28.036Z,1030.9
2019-03-27T09:35:29.653Z,1030.9
2019-03-27T09:36:31.129Z,1030.7
2019-03-27T09:37:32.820Z,1030.2
2019-03-27T09:38:34.393Z,1029.7
2019-03-27T09:39:36.095Z,1030.2
2019-03-27T09:40:37.648Z,1030.3
2019-03-27T09:41:39.474Z,1030.4
2019-03-27T09:42:41.157Z,1030.4
2019-03-27T09:43:42.928Z,1030.4
2019-03-27T09:44:44.602Z,1030.5
2019-03-27T09:45:46.092Z,1030.8
2019-03-27T09:46:47.640Z,1031.2
2019-03-27T09:47:49.325Z,1031.1
2019-03-27T09:48:50.894Z,1030.9
2019-03-27T09:49:52.599Z,1029.1
2019-03-27T09:50:54.318Z,1028.8
2019-03-27T09:51:56.086Z,1028.6
2019-03-27T09:52:57.639Z,1028.4
2019-03-27T09:53:59.265Z,1028.5
2019-03-27T09:55:01.691Z,1031.9
2019-03-27T09:56:03.524Z,1028.8
2019-03-27T09:57:05.100Z,1028.7
2019-03-27T09:58:06.791Z,1028.8
2019-03-27T09:59:08.447Z,1028.6
2019-03-27T10:00:10.121Z,1028.5
2019-03-27T10:01:11.675Z,1028.4
2019-03-27T10:02:13.394Z,1028.4
2019-03-27T10:03:14.996Z,1028.4
2019-03-27T10:04:16.501Z,1028.5
2019-03-27T10:05:18.290Z,1028.6
2019-03-27T10:06:19.981Z,1031.9
2019-03-27T10:07:21.644Z,1030.9
2019-03-27T10:08:23.536Z,1029.0
2019-03-27T10:09:25.047Z,1028.6
2019-03-27T10:10:26.750Z,1028.7
2019-03-27T10:11:28.340Z,1029.3
2019-03-27T10:12:30.058Z,1028.8
2019-03-27T10:13:31.594Z,1028.7
2019-03-27T10:14:33.313Z,1028.7
2019-03-27T10:15:35.006Z,1028.6
2019-03-27T10:16:36.575Z,1028.5
2019-03-27T10:17:38.165Z,1028.5
2019-03-27T10:18:39.898Z,1028.4
2019-03-27T10:19:41.452Z,1028.4
2019-03-27T10:20:43.235Z,1028.4
2019-03-27T10:21:44.763Z,1028.4
2019-03-27T10:22:46.423Z,1028.4
2019-03-27T10:23:48.156Z,1028.5
2019-03-27T10:24:50.185Z,1028.5
2019-03-27T10:25:51.557Z,1028.4
2019-03-27T10:26:53.262Z,1028.3
2019-03-27T10:27:54.878Z,1028.3
2019-03-27T10:28:56.440Z,1028.3
2019-03-27T10:29:58.195Z,1028.3
2019-03-27T10:30:59.605Z,1028.3
2019-03-27T10:32:01.218Z,1028.3
2019-03-27T10:33:03.044Z,1028.3
2019-03-27T10:34:04.620Z,1028.3
2019-03-27T10:35:06.174Z,1028.3
2019-03-27T10:36:07.950Z,1028.4
2019-03-27T10:37:09.411Z,1028.5
2019-03-27T10:38:10.952Z,1028.7
2019-03-27T10:39:12.606Z,1029.0
2019-03-27T10:40:14.173Z,1029.0
2019-03-27T10:41:15.743Z,1028.9
2019-03-27T10:42:17.514Z,1028.8
2019-03-27T10:43:19.343Z,1028.8
2019-03-27T10:44:20.982Z,1028.8
2019-03-27T10:45:22.792Z,1028.7
2019-03-27T10:46:24.374Z,1029.0
2019-03-27T10:47:26.238Z,1029.2
2019-03-27T10:48:27.892Z,1029.3
2019-03-27T10:49:29.947Z,1029.5
2019-03-27T10:50:31.565Z,1029.7
2019-03-27T10:51:33.614Z,1029.3
2019-03-27T10:52:35.180Z,1029.3
2019-03-27T10:53:37.030Z,1029.5
2019-03-27T10:54:38.647Z,1029.1
2019-03-27T10:55:40.462Z,1028.9
2019-03-27T10:56:42.060Z,1028.8
2019-03-27T10:57:44.102Z,1028.7
2019-03-27T10:58:45.673Z,1028.7
2019-03-27T10:59:47.453Z,1028.7
2019-03-27T11:00:48.983Z,1028.9
2019-03-27T11:01:50.685Z,1029.0
2019-03-27T11:02:52.350Z,1029.6
2019-03-27T11:03:53.921Z,1029.4
2019-03-27T11:04:55.634Z,1029.3
2019-03-27T11:05:57.167Z,1029.2
2019-03-27T11:06:58.720Z,1029.0
2019-03-27T11:08:00.455Z,1029.0
2019-03-27T11:09:01.923Z,1029.1
2019-03-27T11:10:03.368Z,1029.1
2019-03-27T11:11:04.914Z,1029.4
2019-03-27T11:12:06.824Z,1029.1
2019-03-27T11:13:08.473Z,1029.0
2019-03-27T11:14:10.140Z,1028.9
2019-03-27T11:15:11.732Z,1028.8
2019-03-27T11:16:13.340Z,1028.7
2019-03-27T11:17:15.322Z,1028.7
2019-03-27T11:18:16.867Z,1028.6
2019-03-27T11:19:18.585Z,1028.7
2019-03-27T11:20:30.309Z,1028.7
2019-03-27T11:21:21.851Z,1028.7
2019-03-27T11:22:23.459Z,1028.7
2019-03-27T11:23:25.200Z,1028.8
2019-03-27T11:24:26.873Z,1028.8
2019-03-27T11:25:28.460Z,1028.8
2019-03-27T11:26:30.034Z,1028.9
2019-03-27T11:27:31.786Z,1028.8
2019-03-27T11:28:33.366Z,1028.7
2019-03-27T11:29:34.910Z,1028.6
2019-03-27T11:30:36.733Z,1028.4
2019-03-27T11:31:38.350Z,1028.5
2019-03-27T11:32:39.868Z,1028.5
2019-03-27T11:33:41.591Z,1028.7
2019-03-27T11:34:43.217Z,1028.7
2019-03-27T11:35:44.785Z,1028.7
2019-03-27T11:36:46.559Z,1028.7
2019-03-27T11:37:48.177Z,1028.8
2019-03-27T11:38:49.756Z,1028.9
2019-03-27T11:39:51.537Z,1028.8
2019-03-27T11:40:53.059Z,1028.7
2019-03-27T11:41:54.900Z,1028.6
2019-03-27T11:42:56.521Z,1028.7
2019-03-27T11:43:58.352Z,1028.7
2019-03-27T11:44:59.893Z,1028.7
2019-03-27T11:46:01.591Z,1028.7
2019-03-27T11:47:03.154Z,1028.8
2019-03-27T11:48:07.837Z,1028.7
2019-03-27T11:49:06.412Z,1028.6
2019-03-27T11:50:08.271Z,1028.6
2019-03-27T11:51:09.748Z,1028.6
2019-03-27T11:52:11.484Z,1028.5
2019-03-27T11:53:13.155Z,1028.5
2019-03-27T11:54:14.817Z,1028.4
2019-03-27T11:55:16.343Z,1028.4
2019-03-27T11:56:18.069Z,1028.3
2019-03-27T11:57:19.689Z,1028.4
2019-03-27T11:58:21.288Z,1028.4
2019-03-27T11:59:22.926Z,1028.4
2019-03-27T12:00:24.659Z,1028.4
2019-03-27T12:01:38.655Z,1028.4
2019-03-27T12:02:27.898Z,1028.5
2019-03-27T12:03:29.422Z,1028.5
2019-03-27T12:04:31.194Z,1028.5
2019-03-27T12:05:32.776Z,1028.5
2019-03-27T12:06:34.524Z,1028.5
2019-03-27T12:07:36.075Z,1028.5
2019-03-27T12:08:37.792Z,1028.4
2019-03-27T12:09:39.363Z,1028.4
2019-03-27T12:10:40.883Z,1028.2
2019-03-27T12:11:42.509Z,1028.2
2019-03-27T12:12:44.069Z,1028.1
2019-03-27T12:13:45.645Z,1028.1
2019-03-27T12:14:47.305Z,1028.2
2019-03-27T12:15:48.844Z,1028.1
2019-03-27T12:16:50.365Z,1028.2
2019-03-27T12:17:52.012Z,1028.3
2019-03-27T12:18:53.592Z,1028.3
2019-03-27T12:19:55.168Z,1028.4
2019-03-27T12:20:59.537Z,1028.3
2019-03-27T12:21:58.434Z,1028.3
2019-03-27T12:23:00.077Z,1028.2
2019-03-27T12:24:01.520Z,1028.3
2019-03-27T12:25:03.046Z,1028.2
2019-03-27T12:26:04.826Z,1028.1
2019-03-27T12:27:06.305Z,1028.3
2019-03-27T12:28:07.826Z,1028.3
2019-03-27T12:29:09.483Z,1028.2
2019-03-27T12:30:11.022Z,1028.2
2019-03-27T12:31:12.551Z,1028.2
2019-03-27T12:32:14.233Z,1028.2
2019-03-27T12:33:15.766Z,1028.2
2019-03-27T12:34:17.288Z,1028.3
2019-03-27T12:35:18.887Z,1028.3
2019-03-27T12:36:20.416Z,1028.3
2019-03-27T12:37:21.938Z,1028.2
2019-03-27T12:38:23.523Z,1028.3
2019-03-27T12:39:25.055Z,1028.2
2019-03-27T12:40:26.486Z,1028.1
2019-03-27T12:41:28.161Z,1028.1
2019-03-27T12:42:29.582Z,1028.1
2019-03-27T12:43:31.008Z,1028.1
2019-03-27T12:44:32.678Z,1028.1
2019-03-27T12:45:34.216Z,1028.0
2019-03-27T12:46:35.748Z,1028.0
2019-03-27T12:47:37.449Z,1027.9
2019-03-27T12:48:38.995Z,1027.9
2019-03-27T12:49:40.389Z,1028.0
2019-03-27T12:50:44.222Z,1028.0
2019-03-27T12:51:43.459Z,1027.9
2019-03-27T12:52:44.886Z,1027.9
2019-03-27T12:53:46.572Z,1027.8
2019-03-27T12:54:48.122Z,1027.8
2019-03-27T12:55:49.537Z,1027.8
2019-03-27T12:56:51.073Z,1027.8
2019-03-27T12:57:52.486Z,1027.8
2019-03-27T12:58:53.914Z,1027.8
2019-03-27T12:59:55.571Z,1027.9
2019-03-27T13:00:57.116Z,1027.9
2019-03-27T13:01:58.861Z,1027.9
2019-03-27T13:03:00.390Z,1027.8
2019-03-27T13:04:02.138Z,1027.8
2019-03-27T13:05:03.645Z,1027.8
2019-03-27T13:06:05.178Z,1027.7
2019-03-27T13:07:06.837Z,1027.8
2019-03-27T13:08:08.401Z,1027.8
2019-03-27T13:09:10.056Z,1027.8
2019-03-27T13:10:11.785Z,1027.8
2019-03-27T13:11:13.278Z,1027.8
2019-03-27T13:12:15.117Z,1027.9
2019-03-27T13:13:16.743Z,1027.8
2019-03-27T13:14:18.325Z,1027.8
2019-03-27T13:15:19.858Z,1027.9
2019-03-27T13:16:21.881Z,1027.9
2019-03-27T13:17:23.487Z,1027.8
2019-03-27T13:18:25.102Z,1027.8
2019-03-27T13:19:26.673Z,1027.8
2019-03-27T13:20:28.473Z,1027.9
2019-03-27T13:21:29.872Z,1027.8
2019-03-27T13:22:31.579Z,1027.8
2019-03-27T13:23:33.101Z,1027.8
2019-03-27T13:24:34.810Z,1027.8
2019-03-27T13:25:36.327Z,1027.8
2019-03-27T13:26:37.931Z,1027.8
2019-03-27T13:27:39.541Z,1027.8
2019-03-27T13:28:48.927Z,1027.7
2019-03-27T13:29:42.681Z,1027.7
2019-03-27T13:30:44.318Z,1027.8
2019-03-27T13:31:45.917Z,1027.7
2019-03-27T13:32:47.527Z,1027.8
2019-03-27T13:33:50.364Z,1027.8
2019-03-27T13:34:50.792Z,1027.7
2019-03-27T13:35:52.405Z,1027.8
2019-03-27T13:36:54.180Z,1027.8
2019-03-27T13:37:55.808Z,1027.8
2019-03-27T13:38:57.374Z,1027.8
2019-03-27T13:40:00.065Z,1027.7
2019-03-27T13:41:00.621Z,1027.8
2019-03-27T13:42:02.188Z,1027.8
2019-03-27T13:43:03.870Z,1027.8
2019-03-27T13:44:05.377Z,1027.9
2019-03-27T13:45:07.081Z,1027.9
2019-03-27T13:46:08.646Z,1027.9
2019-03-27T13:47:10.570Z,1027.9
2019-03-27T13:48:11.925Z,1027.9
2019-03-27T13:49:13.601Z,1027.9
2019-03-27T13:50:15.169Z,1027.8
2019-03-27T13:51:16.710Z,1027.9
2019-03-27T13:52:18.459Z,1027.8
2019-03-27T13:53:20.010Z,1027.9
2019-03-27T13:54:21.590Z,1027.8
2019-03-27T13:55:23.369Z,1027.9
2019-03-27T13:56:24.940Z,1027.9
2019-03-27T13:57:26.627Z,1027.9
2019-03-27T13:58:28.051Z,1027.9
2019-03-27T13:59:29.593Z,1027.9
2019-03-27T14:00:31.107Z,1027.9
2019-03-27T14:01:32.707Z,1027.9
2019-03-27T14:02:34.187Z,1027.9
2019-03-27T14:03:35.913Z,1027.9
2019-03-27T14:04:37.500Z,1027.9
2019-03-27T14:05:39.081Z,1027.9
2019-03-27T14:06:40.658Z,1027.9
2019-03-27T14:07:42.219Z,1027.8
2019-03-27T14:08:43.930Z,1027.9
2019-03-27T14:09:45.482Z,1027.8
2019-03-27T14:10:46.982Z,1027.8
2019-03-27T14:11:48.665Z,1027.9
2019-03-27T14:12:50.254Z,1027.9
2019-03-27T14:13:51.923Z,1027.9
2019-03-27T14:14:53.470Z,1027.9
2019-03-27T14:15:55.294Z,1027.9
2019-03-27T14:16:56.826Z,1027.9
2019-03-27T14:17:58.514Z,1027.8
2019-03-27T14:19:00.071Z,1027.8
2019-03-27T14:20:01.839Z,1027.8
2019-03-27T14:21:03.385Z,1027.8
2019-03-27T14:22:05.163Z,1027.8
2019-03-27T14:23:06.722Z,1027.8
2019-03-27T14:24:08.422Z,1027.8
2019-03-27T14:25:09.991Z,1027.8
2019-03-27T14:26:11.745Z,1027.8
2019-03-27T14:27:13.311Z,1027.8
2019-03-27T14:28:15.003Z,1027.9
2019-03-27T14:29:16.521Z,1027.8
2019-03-27T14:30:18.250Z,1027.9
2019-03-27T14:31:19.821Z,1027.8
2019-03-27T14:32:21.423Z,1027.8
2019-03-27T14:33:23.060Z,1027.8
2019-03-27T14:34:24.613Z,1027.8
2019-03-27T14:35:26.257Z,1027.8
2019-03-27T14:36:27.958Z,1027.8
2019-03-27T14:37:29.506Z,1027.8
2019-03-27T14:38:31.088Z,1027.8
2019-03-27T14:39:32.762Z,1027.8
2019-03-27T14:40:34.430Z,1027.8
2019-03-27T14:41:35.838Z,1027.8
2019-03-27T14:42:37.468Z,1027.8
2019-03-27T14:43:38.911Z,1027.8
2019-03-27T14:44:40.367Z,1027.8
2019-03-27T14:45:42.047Z,1027.8
2019-03-27T14:46:43.468Z,1027.8
2019-03-27T14:47:44.905Z,1027.8
2019-03-27T14:48:46.731Z,1027.9
2019-03-27T14:49:48.319Z,1027.9
2019-03-27T14:50:49.911Z,1027.9
2019-03-27T14:51:51.450Z,1027.8
2019-03-27T14:52:53.049Z,1027.8
2019-03-27T14:53:54.587Z,1027.8
2019-03-27T14:54:56.300Z,1027.9
2019-03-27T14:55:57.864Z,1027.8
2019-03-27T14:56:59.614Z,1027.8
2019-03-27T14:58:01.190Z,1027.8
2019-03-27T14:59:02.962Z,1027.8
2019-03-27T15:00:04.509Z,1027.8
2019-03-27T15:01:06.285Z,1027.8
2019-03-27T15:02:07.862Z,1027.7
2019-03-27T15:03:09.509Z,1027.8
2019-03-27T15:04:11.236Z,1027.7
2019-03-27T15:05:12.899Z,1027.7
2019-03-27T15:06:14.511Z,1027.7
2019-03-27T15:07:16.314Z,1027.7
2019-03-27T15:08:17.949Z,1027.7
2019-03-27T15:09:19.636Z,1027.7
2019-03-27T15:10:21.087Z,1027.7
2019-03-27T15:11:23.001Z,1027.7
2019-03-27T15:12:24.553Z,1027.7
2019-03-27T15:13:26.194Z,1027.7
2019-03-27T15:14:27.780Z,1027.7
2019-03-27T15:15:29.488Z,1027.7
2019-03-27T15:16:31.147Z,1027.7
2019-03-27T15:17:32.769Z,1027.7
2019-03-27T15:18:34.570Z,1027.7
2019-03-27T15:19:36.118Z,1027.7
2019-03-27T15:20:37.675Z,1027.7
2019-03-27T15:21:39.455Z,1027.7
2019-03-27T15:22:41.034Z,1027.7
2019-03-27T15:23:42.784Z,1027.6
2019-03-27T15:24:44.526Z,1027.7
2019-03-27T15:25:46.363Z,1027.7
2019-03-27T15:26:47.895Z,1027.7
2019-03-27T15:27:49.691Z,1027.7
2019-03-27T15:28:51.481Z,1027.6
2019-03-27T15:29:53.134Z,1027.6
2019-03-27T15:30:54.760Z,1027.6
2019-03-27T15:31:56.462Z,1027.6
2019-03-27T15:32:58.065Z,1027.6
2019-03-27T15:33:59.679Z,1027.6
2019-03-27T15:35:01.379Z,1027.6
2019-03-27T15:36:03.116Z,1027.6
2019-03-27T15:37:04.845Z,1027.5
2019-03-27T15:38:06.616Z,1027.5
2019-03-27T15:39:08.208Z,1027.5
2019-03-27T15:40:09.832Z,1027.5
2019-03-27T15:41:11.628Z,1027.5
2019-03-27T15:42:13.243Z,1027.5
2019-03-27T15:43:14.793Z,1027.4
2019-03-27T15:44:16.646Z,1027.5
2019-03-27T15:45:18.204Z,1027.5
2019-03-27T15:46:19.855Z,1027.4
2019-03-27T15:47:21.482Z,1027.5
2019-03-27T15:48:23.161Z,1027.5
2019-03-27T15:49:24.807Z,1027.3
2019-03-27T15:50:26.534Z,1027.4
2019-03-27T15:51:28.203Z,1027.4
2019-03-27T15:52:36.188Z,1027.4
2019-03-27T15:53:31.424Z,1027.4
2019-03-27T15:54:32.968Z,1027.4
2019-03-27T15:55:34.999Z,1027.4
2019-03-27T15:56:38.492Z,1027.4
2019-03-27T15:57:38.459Z,1027.5
2019-03-27T15:58:40.056Z,1027.4
2019-03-27T15:59:41.944Z,1027.4
2019-03-27T16:00:43.600Z,1027.4
2019-03-27T16:01:45.444Z,1027.4
2019-03-27T16:02:47.066Z,1027.4
2019-03-27T16:03:48.914Z,1027.4
2019-03-27T16:04:50.601Z,1027.4
2019-03-27T16:05:52.376Z,1027.3
2019-03-27T16:06:53.945Z,1027.4
2019-03-27T16:07:55.573Z,1027.4
2019-03-27T16:08:57.340Z,1027.4
2019-03-27T16:09:58.916Z,1027.4
2019-03-27T16:11:00.680Z,1027.4
2019-03-27T16:12:02.365Z,1027.3
2019-03-27T16:13:03.923Z,1027.4
2019-03-27T16:14:05.699Z,1027.4
2019-03-27T16:15:07.091Z,1027.4
2019-03-27T16:16:08.614Z,1027.4
2019-03-27T16:17:13.636Z,1027.4
2019-03-27T16:18:11.421Z,1027.4
2019-03-27T16:19:13.064Z,1027.3
2019-03-27T16:20:14.648Z,1027.4
2019-03-27T16:21:16.384Z,1027.4
2019-03-27T16:22:18.032Z,1027.4
2019-03-27T16:23:19.639Z,1027.4
2019-03-27T16:24:21.295Z,1027.4
2019-03-27T16:25:22.818Z,1027.4
2019-03-27T16:26:24.647Z,1027.4
2019-03-27T16:27:26.195Z,1027.3
2019-03-27T16:28:27.612Z,1027.4
2019-03-27T16:29:29.309Z,1027.4
2019-03-27T16:30:30.885Z,1027.3
2019-03-27T16:31:32.449Z,1027.4
2019-03-27T16:32:34.083Z,1027.4
2019-03-27T16:33:35.728Z,1027.4
2019-03-27T16:34:37.149Z,1027.4
2019-03-27T16:35:38.716Z,1027.4
2019-03-27T16:36:40.352Z,1027.4
2019-03-27T16:37:41.767Z,1027.4
2019-03-27T16:38:43.519Z,1027.4
2019-03-27T16:39:45.341Z,1027.4
2019-03-27T16:40:47.004Z,1027.4
2019-03-27T16:41:48.812Z,1027.4
2019-03-27T16:42:50.431Z,1027.4
2019-03-27T16:43:52.070Z,1027.4
2019-03-27T16:44:53.932Z,1027.4
2019-03-27T16:45:55.644Z,1027.4
2019-03-27T16:46:57.548Z,1027.4
2019-03-27T16:47:59.204Z,1027.4
2019-03-27T16:49:00.952Z,1027.4
2019-03-27T16:50:02.542Z,1027.4
2019-03-27T16:51:04.272Z,1027.4
2019-03-27T16:52:06.125Z,1027.4
2019-03-27T16:53:08.144Z,1027.4
2019-03-27T16:54:09.748Z,1027.4
2019-03-27T16:55:11.409Z,1027.4
2019-03-27T16:56:13.171Z,1027.3
2019-03-27T16:57:14.807Z,1027.3
2019-03-27T16:58:16.313Z,1027.3
2019-03-27T16:59:18.118Z,1027.3
2019-03-27T17:00:19.571Z,1027.4
2019-03-27T17:01:21.276Z,1027.3
2019-03-27T17:02:22.778Z,1027.3
2019-03-27T17:03:24.301Z,1027.3
2019-03-27T17:04:26.054Z,1027.4
2019-03-27T17:05:27.569Z,1027.3
2019-03-27T17:06:29.130Z,1027.4
2019-03-27T17:07:30.758Z,1027.3
2019-03-27T17:08:32.229Z,1027.3
2019-03-27T17:09:33.787Z,1027.3
2019-03-27T17:10:35.512Z,1027.4
2019-03-27T17:11:37.083Z,1027.3
2019-03-27T17:12:38.765Z,1027.4
2019-03-27T17:13:40.399Z,1027.4
2019-03-27T17:14:42.081Z,1027.4
2019-03-27T17:15:43.618Z,1027.4
2019-03-27T17:16:45.377Z,1027.4
2019-03-27T17:17:46.915Z,1027.4
2019-03-27T17:18:48.505Z,1027.4
2019-03-27T17:19:50.013Z,1027.4
2019-03-27T17:20:51.738Z,1027.4
2019-03-27T17:21:53.278Z,1027.4
2019-03-27T17:22:54.882Z,1027.4
2019-03-27T17:23:56.368Z,1027.4
2019-03-27T17:24:57.942Z,1027.4
2019-03-27T17:25:59.601Z,1027.5
2019-03-27T17:27:01.063Z,1027.5
2019-03-27T17:28:02.798Z,1027.4
2019-03-27T17:29:04.257Z,1027.5
2019-03-27T17:30:06.018Z,1027.5
2019-03-27T17:31:07.536Z,1027.5
2019-03-27T17:32:09.055Z,1027.5
2019-03-27T17:33:10.731Z,1027.5
2019-03-27T17:34:12.297Z,1027.5
2019-03-27T17:35:14.011Z,1027.4
2019-03-27T17:36:15.531Z,1027.4
2019-03-27T17:37:17.331Z,1027.4
2019-03-27T17:38:18.888Z,1027.4
2019-03-27T17:39:20.325Z,1027.5
2019-03-27T17:40:22.052Z,1027.5
2019-03-27T17:41:23.578Z,1027.4
2019-03-27T17:42:25.088Z,1027.4
2019-03-27T17:43:26.671Z,1027.4
2019-03-27T17:44:28.208Z,1027.4
2019-03-27T17:45:29.834Z,1027.4
2019-03-27T17:46:31.343Z,1027.4
2019-03-27T17:47:32.914Z,1027.4
2019-03-27T17:48:34.409Z,1027.4
2019-03-27T17:49:36.077Z,1027.4
2019-03-27T17:50:37.603Z,1027.4
2019-03-27T17:51:39.304Z,1027.4
2019-03-27T17:52:40.842Z,1027.4
2019-03-27T17:53:42.593Z,1027.5
2019-03-27T17:54:44.305Z,1027.5
2019-03-27T17:55:46.089Z,1027.4
2019-03-27T17:56:47.605Z,1027.5
2019-03-27T17:57:49.409Z,1027.4
2019-03-27T17:58:51.021Z,1027.5
2019-03-27T17:59:52.689Z,1027.5
2019-03-27T18:00:54.206Z,1027.5
2019-03-27T18:01:55.984Z,1027.5
2019-03-27T18:02:57.539Z,1027.5
2019-03-27T18:03:59.025Z,1027.6
2019-03-27T18:05:00.700Z,1027.6
2019-03-27T18:06:02.133Z,1027.6
2019-03-27T18:07:03.722Z,1027.5
2019-03-27T18:08:05.421Z,1027.5
2019-03-27T18:09:07.147Z,1027.5
2019-03-27T18:10:08.640Z,1027.5
2019-03-27T18:11:10.378Z,1027.5
2019-03-27T18:12:11.941Z,1027.5
2019-03-27T18:13:13.503Z,1027.5
2019-03-27T18:14:15.125Z,1027.5
2019-03-27T18:15:16.588Z,1027.5
2019-03-27T18:16:18.136Z,1027.5
2019-03-27T18:17:19.670Z,1027.5
2019-03-27T18:18:21.227Z,1027.5
2019-03-27T18:19:22.766Z,1027.6
2019-03-27T18:20:24.377Z,1027.6
2019-03-27T18:21:25.982Z,1027.5
2019-03-27T18:22:27.524Z,1027.5
2019-03-27T18:23:29.108Z,1027.5
2019-03-27T18:24:30.690Z,1027.5
2019-03-27T18:25:32.240Z,1027.5
2019-03-27T18:26:33.760Z,1027.5
2019-03-27T18:27:35.465Z,1027.5
2019-03-27T18:28:37.257Z,1027.5
2019-03-27T18:29:38.835Z,1027.5
2019-03-27T18:30:40.488Z,1027.6
2019-03-27T18:31:42.104Z,1027.5
2019-03-27T18:32:43.699Z,1027.6
2019-03-27T18:33:45.307Z,1027.5
2019-03-27T18:34:46.991Z,1027.6
2019-03-27T18:35:48.522Z,1027.6
2019-03-27T18:36:50.018Z,1027.6
2019-03-27T18:37:51.713Z,1027.6
2019-03-27T18:38:53.306Z,1027.5
2019-03-27T18:39:54.854Z,1027.6
2019-03-27T18:40:56.662Z,1027.6
2019-03-27T18:41:58.167Z,1027.5
2019-03-27T18:43:00.008Z,1027.6
2019-03-27T18:44:03.223Z,1027.6
2019-03-27T18:45:03.280Z,1027.7
2019-03-27T18:46:04.823Z,1027.6
2019-03-27T18:47:06.362Z,1027.7
2019-03-27T18:48:07.915Z,1027.7
2019-03-27T18:49:10.634Z,1027.7
2019-03-27T18:50:11.118Z,1027.7
2019-03-27T18:51:12.678Z,1027.7
2019-03-27T18:52:14.245Z,1027.7
2019-03-27T18:53:16.011Z,1027.8
2019-03-27T18:54:17.593Z,1027.8
2019-03-27T18:55:26.360Z,1027.8
2019-03-27T18:56:20.795Z,1027.8
2019-03-27T18:57:22.605Z,1027.8
2019-03-27T18:58:24.187Z,1027.9
2019-03-27T18:59:25.706Z,1027.8
2019-03-27T19:00:27.621Z,1027.9
2019-03-27T19:01:28.992Z,1027.8
2019-03-27T19:02:30.550Z,1027.8
2019-03-27T19:03:32.201Z,1027.8
2019-03-27T19:04:33.729Z,1027.9
2019-03-27T19:05:35.270Z,1027.8
2019-03-27T19:06:36.939Z,1027.8
2019-03-27T19:07:38.478Z,1027.9
2019-03-27T19:08:40.271Z,1027.9
2019-03-27T19:09:41.852Z,1027.8
2019-03-27T19:10:43.322Z,1027.9
2019-03-27T19:11:44.987Z,1027.9
2019-03-27T19:12:46.536Z,1027.9
2019-03-27T19:13:48.106Z,1027.9
2019-03-27T19:14:49.744Z,1027.9
2019-03-27T19:15:51.222Z,1027.9
2019-03-27T19:16:53.002Z,1027.9
2019-03-27T19:17:54.542Z,1027.9
2019-03-27T19:18:56.338Z,1027.9
2019-03-27T19:19:57.859Z,1027.9
2019-03-27T19:20:59.636Z,1027.9
2019-03-27T19:22:01.207Z,1027.9
2019-03-27T19:23:02.856Z,1027.9
2019-03-27T19:24:16.110Z,1027.9
2019-03-27T19:25:14.409Z,1028.0
2019-03-27T19:26:15.883Z,1028.0
2019-03-27T19:27:18.902Z,1027.9
2019-03-27T19:28:20.453Z,1027.9
2019-03-27T19:29:22.548Z,1028.0
2019-03-27T19:30:24.110Z,1027.9
2019-03-27T19:31:25.633Z,1028.0
2019-03-27T19:32:27.291Z,1027.9
2019-03-27T19:33:28.826Z,1028.0
2019-03-27T19:34:30.559Z,1027.9
2019-03-27T19:35:32.372Z,1027.9
2019-03-27T19:36:33.976Z,1027.9
2019-03-27T19:37:35.605Z,1027.9
2019-03-27T19:38:37.326Z,1027.9
2019-03-27T19:39:38.827Z,1027.9
2019-03-27T19:40:40.346Z,1028.0
2019-03-27T19:41:42.162Z,1027.9
2019-03-27T19:42:44.351Z,1028.0
2019-03-27T19:43:45.876Z,1028.0
2019-03-27T19:44:47.429Z,1028.0
2019-03-27T19:45:48.948Z,1027.9
2019-03-27T19:46:50.471Z,1028.0
2019-03-27T19:47:52.194Z,1027.9
2019-03-27T19:48:53.736Z,1027.9
2019-03-27T19:49:55.267Z,1028.0
2019-03-27T19:50:56.907Z,1028.0
2019-03-27T19:51:58.434Z,1028.0
2019-03-27T19:52:59.955Z,1028.0
2019-03-27T19:54:01.516Z,1028.0
2019-03-27T19:55:03.075Z,1028.0
2019-03-27T19:56:04.649Z,1028.0
2019-03-27T19:57:06.388Z,1028.0
2019-03-27T19:58:07.974Z,1028.0
2019-03-27T19:59:09.548Z,1028.0
2019-03-27T20:00:11.521Z,1028.0
2019-03-27T20:01:13.115Z,1028.0
2019-03-27T20:02:14.639Z,1028.0
2019-03-27T20:03:16.257Z,1028.0
2019-03-27T20:04:17.849Z,1028.0
2019-03-27T20:05:19.370Z,1028.0
2019-03-27T20:06:20.937Z,1028.0
2019-03-27T20:07:35.277Z,1028.0
2019-03-27T20:08:23.940Z,1028.0
2019-03-27T20:09:26.783Z,1028.0
2019-03-27T20:10:28.292Z,1028.0
2019-03-27T20:11:30.621Z,1028.0
2019-03-27T20:12:32.251Z,1028.0
2019-03-27T20:13:34.217Z,1028.0
2019-03-27T20:14:36.054Z,1028.0
2019-03-27T20:15:37.640Z,1028.0
2019-03-27T20:16:39.454Z,1028.0
2019-03-27T20:17:42.315Z,1028.0
2019-03-27T20:18:43.686Z,1028.1
2019-03-27T20:19:45.519Z,1028.0
2019-03-27T20:20:46.966Z,1028.0
2019-03-27T20:21:48.527Z,1028.1
2019-03-27T20:22:50.227Z,1028.0
2019-03-27T20:23:51.621Z,1028.0
2019-03-27T20:25:26.367Z,1028.1
2019-03-27T20:26:27.858Z,1028.1
2019-03-27T20:27:29.622Z,1028.1
2019-03-27T20:28:31.938Z,1028.1
2019-03-27T20:29:33.430Z,1028.1
2019-03-27T20:30:35.034Z,1028.0
2019-03-27T20:31:36.966Z,1028.1
2019-03-27T20:32:38.367Z,1028.1
2019-03-27T20:33:39.935Z,1028.1
2019-03-27T20:34:41.639Z,1028.1
2019-03-27T20:35:43.207Z,1028.0
2019-03-27T20:36:44.567Z,1028.1